UKV735 LEMD-EGCC
Flight info
| Callsign | UKV735 |
|---|---|
| Flight time | N/A |
| Altitude | 38000 |
| Route | SIE N865 DELOG DCT RUSIB DCT NOZHU/N0443F370 DCT SHIRI DCT TOJAQ DCT EPACE DCT ACCOP DCT MOCQO P16 AXCIS |
| Aircraft | A320/M-SDE3FGIKRWXY/S |
Departure
| Time | 2026-05-08 09:01 |
|---|---|
| Airport | Adolfo Suárez Madrid–Barajas Airport (LEMD) |
Arrival
| Time | N/A |
|---|---|
| Airport | Manchester Airport (EGCC) |
| Time | Latitude | Longitude | Altitude | Speed | Heading |
|---|---|---|---|---|---|
| 2026-05-08 08:37 | 40.49084 | -3.56642 | 1976 ft | 0 kts | 269° |
| 2026-05-08 08:46 | 40.49084 | -3.56611 | 1973 ft | 4 kts | 269° |
| 2026-05-08 08:47 | 40.49085 | -3.56580 | 1975 ft | 2 kts | 269° |
| 2026-05-08 08:47 | 40.49088 | -3.56552 | 1974 ft | 4 kts | 221° |
| 2026-05-08 08:47 | 40.49110 | -3.56543 | 1974 ft | 3 kts | 179° |
| 2026-05-08 08:47 | 40.49124 | -3.56543 | 1973 ft | 0 kts | 179° |
| 2026-05-08 08:55 | 40.49112 | -3.56543 | 1970 ft | 6 kts | 179° |
| 2026-05-08 08:55 | 40.49070 | -3.56542 | 1970 ft | 5 kts | 179° |
| 2026-05-08 08:56 | 40.49037 | -3.56542 | 1975 ft | 4 kts | 180° |
| 2026-05-08 08:56 | 40.49011 | -3.56542 | 1970 ft | 6 kts | 179° |
| 2026-05-08 08:56 | 40.48945 | -3.56541 | 1970 ft | 7 kts | 180° |
| 2026-05-08 08:56 | 40.48911 | -3.56541 | 1970 ft | 4 kts | 179° |
| 2026-05-08 08:57 | 40.48876 | -3.56556 | 1975 ft | 10 kts | 220° |
| 2026-05-08 08:57 | 40.48862 | -3.56634 | 1972 ft | 8 kts | 269° |
| 2026-05-08 08:57 | 40.48862 | -3.56741 | 1974 ft | 17 kts | 270° |
| 2026-05-08 08:57 | 40.48863 | -3.56884 | 1977 ft | 14 kts | 274° |
| 2026-05-08 08:58 | 40.48860 | -3.56993 | 1979 ft | 10 kts | 269° |
| 2026-05-08 08:58 | 40.48861 | -3.57073 | 1980 ft | 11 kts | 270° |
| 2026-05-08 08:58 | 40.48879 | -3.57223 | 1983 ft | 11 kts | 346° |
| 2026-05-08 08:58 | 40.48951 | -3.57228 | 1983 ft | 10 kts | 359° |
| 2026-05-08 08:59 | 40.49018 | -3.57244 | 1984 ft | 9 kts | 319° |
| 2026-05-08 08:59 | 40.49057 | -3.57298 | 1984 ft | 8 kts | 314° |
| 2026-05-08 08:59 | 40.49088 | -3.57340 | 1985 ft | 5 kts | 315° |
| 2026-05-08 08:59 | 40.49109 | -3.57367 | 1985 ft | 3 kts | 315° |
| 2026-05-08 09:00 | 40.49142 | -3.57409 | 1986 ft | 15 kts | 316° |
| 2026-05-08 09:00 | 40.49257 | -3.57452 | 1985 ft | 19 kts | 360° |
| 2026-05-08 09:00 | 40.49380 | -3.57450 | 1983 ft | 17 kts | 0° |
| 2026-05-08 09:00 | 40.49396 | -3.57450 | 1983 ft | 0 kts | 0° |
| 2026-05-08 09:01 | 40.49634 | -3.57448 | 1985 ft | 71 kts | 0° |
| 2026-05-08 09:01 | 40.50332 | -3.57444 | 1991 ft | 129 kts | 358° |
| 2026-05-08 09:01 | 40.51380 | -3.57448 | 2032 ft | 169 kts | 359° |
| 2026-05-08 09:01 | 40.52553 | -3.57431 | 2618 ft | 168 kts | 1° |
| 2026-05-08 09:02 | 40.53729 | -3.57453 | 3252 ft | 170 kts | 360° |
| 2026-05-08 09:02 | 40.54914 | -3.57494 | 3865 ft | 176 kts | 355° |
| 2026-05-08 09:02 | 40.56107 | -3.58126 | 4196 ft | 197 kts | 318° |
| 2026-05-08 09:02 | 40.56920 | -3.59634 | 4441 ft | 216 kts | 295° |
| 2026-05-08 09:03 | 40.57821 | -3.61290 | 4901 ft | 231 kts | 314° |
| 2026-05-08 09:03 | 40.58996 | -3.62760 | 5630 ft | 235 kts | 317° |
| 2026-05-08 09:03 | 40.60324 | -3.64189 | 6437 ft | 238 kts | 319° |
| 2026-05-08 09:03 | 40.61587 | -3.65470 | 7126 ft | 242 kts | 320° |
| 2026-05-08 09:04 | 40.62987 | -3.66740 | 7801 ft | 249 kts | 332° |
| 2026-05-08 09:04 | 40.64640 | -3.67477 | 8482 ft | 257 kts | 349° |
| 2026-05-08 09:04 | 40.66508 | -3.67560 | 8813 ft | 281 kts | 7° |
| 2026-05-08 09:04 | 40.68498 | -3.67239 | 9214 ft | 301 kts | 7° |
| 2026-05-08 09:05 | 40.70611 | -3.66918 | 9901 ft | 310 kts | 7° |
| 2026-05-08 09:05 | 40.72805 | -3.66600 | 10338 ft | 328 kts | 7° |
| 2026-05-08 09:05 | 40.75158 | -3.66265 | 10587 ft | 352 kts | 6° |
| 2026-05-08 09:05 | 40.77655 | -3.65910 | 11021 ft | 367 kts | 6° |
| 2026-05-08 09:06 | 40.80217 | -3.65544 | 11742 ft | 373 kts | 6° |
| 2026-05-08 09:06 | 40.82810 | -3.65173 | 12497 ft | 377 kts | 6° |
| 2026-05-08 09:06 | 40.85431 | -3.64796 | 13248 ft | 381 kts | 6° |
| 2026-05-08 09:06 | 40.88068 | -3.64414 | 13999 ft | 383 kts | 6° |
| 2026-05-08 09:07 | 40.90728 | -3.64031 | 14638 ft | 386 kts | 6° |
| 2026-05-08 09:07 | 40.93415 | -3.63644 | 15262 ft | 390 kts | 6° |
| 2026-05-08 09:07 | 40.96124 | -3.63252 | 15875 ft | 394 kts | 6° |
| 2026-05-08 09:07 | 40.98822 | -3.62858 | 16479 ft | 397 kts | 6° |
| 2026-05-08 09:08 | 41.01584 | -3.62455 | 17086 ft | 401 kts | 6° |
| 2026-05-08 09:08 | 41.04369 | -3.62048 | 17668 ft | 405 kts | 6° |
| 2026-05-08 09:08 | 41.07184 | -3.61637 | 18243 ft | 409 kts | 6° |
| 2026-05-08 09:08 | 41.10026 | -3.61221 | 18718 ft | 413 kts | 6° |
| 2026-05-08 09:09 | 41.12901 | -3.60799 | 19181 ft | 418 kts | 6° |
| 2026-05-08 09:09 | 41.15808 | -3.60410 | 19648 ft | 421 kts | 2° |
| 2026-05-08 09:09 | 41.18750 | -3.60339 | 20084 ft | 425 kts | 1° |
| 2026-05-08 09:09 | 41.21683 | -3.60345 | 20523 ft | 429 kts | 358° |
| 2026-05-08 09:10 | 41.24680 | -3.60473 | 20981 ft | 433 kts | 357° |
| 2026-05-08 09:10 | 41.27701 | -3.60653 | 21426 ft | 437 kts | 357° |
| 2026-05-08 09:10 | 41.30752 | -3.60827 | 21886 ft | 440 kts | 357° |
| 2026-05-08 09:10 | 41.33818 | -3.60968 | 22381 ft | 442 kts | 358° |
| 2026-05-08 09:11 | 41.36904 | -3.61073 | 22829 ft | 445 kts | 358° |
| 2026-05-08 09:11 | 41.40015 | -3.61150 | 23263 ft | 449 kts | 359° |
| 2026-05-08 09:11 | 41.43146 | -3.61210 | 23653 ft | 452 kts | 359° |
| 2026-05-08 09:11 | 41.46299 | -3.61270 | 24015 ft | 455 kts | 359° |
| 2026-05-08 09:12 | 41.49477 | -3.61335 | 24385 ft | 458 kts | 359° |
| 2026-05-08 09:12 | 41.52621 | -3.61396 | 24776 ft | 458 kts | 359° |
| 2026-05-08 09:12 | 41.55810 | -3.61422 | 25204 ft | 459 kts | 360° |
| 2026-05-08 09:12 | 41.59014 | -3.61419 | 25565 ft | 461 kts | 0° |
| 2026-05-08 09:13 | 41.62231 | -3.61398 | 25896 ft | 464 kts | 0° |
| 2026-05-08 09:13 | 41.65474 | -3.61375 | 26210 ft | 467 kts | 0° |
| 2026-05-08 09:13 | 41.68733 | -3.61358 | 26536 ft | 470 kts | 0° |
| 2026-05-08 09:13 | 41.72014 | -3.61350 | 26853 ft | 473 kts | 0° |
| 2026-05-08 09:14 | 41.75314 | -3.61346 | 27179 ft | 475 kts | 0° |
| 2026-05-08 09:14 | 41.78634 | -3.61347 | 27495 ft | 478 kts | 0° |
| 2026-05-08 09:14 | 41.81970 | -3.61351 | 27806 ft | 481 kts | 0° |
| 2026-05-08 09:14 | 41.85279 | -3.61355 | 28100 ft | 484 kts | 0° |
| 2026-05-08 09:15 | 41.88655 | -3.61359 | 28387 ft | 486 kts | 0° |
| 2026-05-08 09:15 | 41.92046 | -3.61363 | 28664 ft | 489 kts | 0° |
| 2026-05-08 09:15 | 41.95455 | -3.61367 | 28959 ft | 491 kts | 1° |
| 2026-05-08 09:15 | 41.98881 | -3.61368 | 29246 ft | 493 kts | 1° |
| 2026-05-08 09:16 | 42.02319 | -3.61371 | 29511 ft | 496 kts | 0° |
| 2026-05-08 09:16 | 42.05776 | -3.61451 | 29777 ft | 498 kts | 359° |
| 2026-05-08 09:16 | 42.09250 | -3.61639 | 30044 ft | 500 kts | 358° |
| 2026-05-08 09:16 | 42.12724 | -3.61900 | 30369 ft | 500 kts | 357° |
| 2026-05-08 09:17 | 42.16192 | -3.62185 | 30704 ft | 499 kts | 357° |
| 2026-05-08 09:17 | 42.19611 | -3.62460 | 31039 ft | 499 kts | 357° |
| 2026-05-08 09:17 | 42.23075 | -3.62716 | 31360 ft | 498 kts | 358° |
| 2026-05-08 09:17 | 42.26539 | -3.62953 | 31682 ft | 498 kts | 358° |
| 2026-05-08 09:18 | 42.29998 | -3.63175 | 32009 ft | 498 kts | 358° |
| 2026-05-08 09:18 | 42.33454 | -3.63392 | 32341 ft | 497 kts | 358° |
| 2026-05-08 09:18 | 42.36900 | -3.63747 | 32658 ft | 496 kts | 352° |
| 2026-05-08 09:18 | 42.40313 | -3.64418 | 33028 ft | 495 kts | 351° |
| 2026-05-08 09:19 | 42.43715 | -3.65095 | 33380 ft | 494 kts | 351° |
| 2026-05-08 09:19 | 42.47066 | -3.65765 | 33700 ft | 493 kts | 351° |
| 2026-05-08 09:19 | 42.50462 | -3.66444 | 34018 ft | 493 kts | 351° |
| 2026-05-08 09:19 | 42.53850 | -3.67118 | 34295 ft | 492 kts | 351° |
| 2026-05-08 09:20 | 42.57238 | -3.67789 | 34616 ft | 490 kts | 351° |
| 2026-05-08 09:20 | 42.60601 | -3.68455 | 34993 ft | 487 kts | 351° |
| 2026-05-08 09:20 | 42.63948 | -3.69123 | 35314 ft | 485 kts | 351° |
| 2026-05-08 09:20 | 42.67287 | -3.69792 | 35602 ft | 484 kts | 350° |
| 2026-05-08 09:21 | 42.70611 | -3.70445 | 35876 ft | 483 kts | 351° |
| 2026-05-08 09:21 | 42.73939 | -3.71045 | 36139 ft | 482 kts | 352° |
| 2026-05-08 09:22 | 42.93749 | -3.74319 | 37591 ft | 476 kts | 351° |
| 2026-05-08 09:23 | 42.97033 | -3.74887 | 37809 ft | 475 kts | 351° |
| 2026-05-08 09:23 | 43.00318 | -3.75457 | 37910 ft | 476 kts | 351° |
| 2026-05-08 09:23 | 43.03602 | -3.76029 | 37906 ft | 475 kts | 351° |
| 2026-05-08 09:24 | 43.10115 | -3.77153 | 37893 ft | 475 kts | 351° |
| 2026-05-08 09:24 | 43.16670 | -3.78287 | 37888 ft | 475 kts | 351° |
| 2026-05-08 09:25 | 43.23230 | -3.79427 | 37869 ft | 475 kts | 351° |
| 2026-05-08 09:25 | 43.29794 | -3.80559 | 37866 ft | 475 kts | 351° |
| 2026-05-08 09:26 | 43.36317 | -3.81688 | 37896 ft | 476 kts | 351° |
| 2026-05-08 09:26 | 43.42887 | -3.82827 | 37892 ft | 476 kts | 351° |
| 2026-05-08 09:27 | 43.49462 | -3.83966 | 37882 ft | 476 kts | 351° |
| 2026-05-08 09:27 | 43.56032 | -3.85124 | 37881 ft | 476 kts | 351° |
| 2026-05-08 09:28 | 43.62606 | -3.86285 | 37882 ft | 476 kts | 351° |
| 2026-05-08 09:28 | 43.69133 | -3.87429 | 37882 ft | 476 kts | 351° |
| 2026-05-08 09:29 | 43.75705 | -3.88588 | 37879 ft | 476 kts | 351° |
| 2026-05-08 09:29 | 43.82275 | -3.89749 | 37883 ft | 476 kts | 351° |
| 2026-05-08 09:30 | 43.88838 | -3.90899 | 37883 ft | 475 kts | 351° |
| 2026-05-08 09:30 | 43.95352 | -3.92044 | 37884 ft | 475 kts | 351° |
| 2026-05-08 09:31 | 44.01902 | -3.93205 | 37884 ft | 474 kts | 351° |
| 2026-05-08 09:31 | 44.08452 | -3.94374 | 37887 ft | 474 kts | 351° |
| 2026-05-08 09:32 | 44.14994 | -3.95538 | 37890 ft | 474 kts | 351° |
| 2026-05-08 09:32 | 44.21531 | -3.96713 | 37897 ft | 473 kts | 351° |
| 2026-05-08 09:33 | 44.28013 | -3.97876 | 37898 ft | 473 kts | 351° |
| 2026-05-08 09:33 | 44.34560 | -3.98707 | 37893 ft | 474 kts | 0° |
| 2026-05-08 09:34 | 44.41146 | -3.98467 | 37895 ft | 473 kts | 0° |
| 2026-05-08 09:34 | 44.47686 | -3.98230 | 37899 ft | 473 kts | 0° |
| 2026-05-08 09:35 | 44.54267 | -3.97997 | 37898 ft | 473 kts | 0° |
| 2026-05-08 09:35 | 44.60845 | -3.97763 | 37907 ft | 473 kts | 0° |
| 2026-05-08 09:36 | 44.67416 | -3.97531 | 37906 ft | 472 kts | 0° |
| 2026-05-08 09:36 | 44.72873 | -3.97329 | 37907 ft | 472 kts | 0° |
| 2026-05-08 09:37 | 44.80500 | -3.97049 | 37906 ft | 472 kts | 0° |
| 2026-05-08 09:37 | 44.87065 | -3.96817 | 37906 ft | 472 kts | 0° |
| 2026-05-08 09:38 | 44.92515 | -3.96619 | 37910 ft | 472 kts | 0° |
| 2026-05-08 09:38 | 44.99074 | -3.96377 | 37911 ft | 471 kts | 360° |
| 2026-05-08 09:39 | 45.06691 | -3.96106 | 37916 ft | 471 kts | 0° |
| 2026-05-08 09:39 | 45.12134 | -3.95905 | 37915 ft | 471 kts | 0° |
| 2026-05-08 09:40 | 45.18681 | -3.95670 | 37922 ft | 470 kts | 360° |
| 2026-05-08 09:40 | 45.25220 | -3.95432 | 37923 ft | 470 kts | 360° |
| 2026-05-08 09:41 | 45.31756 | -3.95185 | 37931 ft | 470 kts | 360° |
| 2026-05-08 09:41 | 45.38288 | -3.94943 | 37929 ft | 469 kts | 360° |
| 2026-05-08 09:42 | 45.44763 | -3.94711 | 37929 ft | 468 kts | 360° |
| 2026-05-08 09:42 | 45.51272 | -3.94481 | 37934 ft | 468 kts | 359° |
| 2026-05-08 09:43 | 45.57777 | -3.94231 | 37935 ft | 467 kts | 360° |
| 2026-05-08 09:43 | 45.64273 | -3.93992 | 37937 ft | 466 kts | 360° |
| 2026-05-08 09:44 | 45.70757 | -3.93757 | 37945 ft | 466 kts | 359° |
| 2026-05-08 09:44 | 45.77188 | -3.93516 | 37937 ft | 465 kts | 359° |
| 2026-05-08 09:45 | 45.83654 | -3.93277 | 37934 ft | 464 kts | 359° |
| 2026-05-08 09:45 | 45.90105 | -3.93031 | 37942 ft | 463 kts | 359° |
| 2026-05-08 09:46 | 45.96544 | -3.92797 | 37952 ft | 463 kts | 359° |
| 2026-05-08 09:46 | 46.02979 | -3.92552 | 37951 ft | 462 kts | 359° |
| 2026-05-08 09:47 | 46.09368 | -3.92312 | 37948 ft | 462 kts | 359° |
| 2026-05-08 09:47 | 46.15791 | -3.92067 | 37951 ft | 462 kts | 359° |
| 2026-05-08 09:48 | 46.22216 | -3.91825 | 37952 ft | 461 kts | 359° |
| 2026-05-08 09:48 | 46.28632 | -3.91587 | 37949 ft | 461 kts | 359° |
| 2026-05-08 09:49 | 46.35004 | -3.91346 | 37955 ft | 461 kts | 359° |
| 2026-05-08 09:49 | 46.41416 | -3.91105 | 37950 ft | 461 kts | 359° |
| 2026-05-08 09:50 | 46.47828 | -3.90862 | 37956 ft | 461 kts | 359° |
| 2026-05-08 09:50 | 46.54246 | -3.90611 | 37959 ft | 461 kts | 359° |
| 2026-05-08 09:51 | 46.60666 | -3.90352 | 37960 ft | 461 kts | 359° |
| 2026-05-08 09:51 | 46.67038 | -3.90113 | 37964 ft | 461 kts | 359° |
| 2026-05-08 09:52 | 46.73460 | -3.89879 | 37963 ft | 462 kts | 359° |
| 2026-05-08 09:52 | 46.79881 | -3.89638 | 37970 ft | 461 kts | 359° |
| 2026-05-08 09:53 | 46.86302 | -3.89390 | 37967 ft | 462 kts | 359° |
| 2026-05-08 09:53 | 46.92682 | -3.89142 | 37981 ft | 462 kts | 359° |
| 2026-05-08 09:54 | 46.99104 | -3.88885 | 37983 ft | 461 kts | 359° |
| 2026-05-08 09:54 | 47.05521 | -3.88639 | 37981 ft | 461 kts | 359° |
| 2026-05-08 09:55 | 47.12969 | -3.88356 | 37983 ft | 461 kts | 359° |
| 2026-05-08 09:55 | 47.18337 | -3.88138 | 37981 ft | 461 kts | 359° |
| 2026-05-08 09:56 | 47.24702 | -3.87886 | 37982 ft | 461 kts | 359° |
| 2026-05-08 09:56 | 47.31110 | -3.87632 | 37981 ft | 461 kts | 359° |
| 2026-05-08 09:57 | 47.40712 | -3.87247 | 37992 ft | 460 kts | 359° |
| 2026-05-08 09:57 | 47.47103 | -3.86996 | 37986 ft | 459 kts | 359° |
| 2026-05-08 09:58 | 47.53442 | -3.86745 | 37997 ft | 459 kts | 359° |
| 2026-05-08 09:58 | 47.59822 | -3.86496 | 37989 ft | 458 kts | 359° |
| 2026-05-08 09:59 | 47.66193 | -3.86250 | 37983 ft | 458 kts | 359° |
| 2026-05-08 09:59 | 47.72565 | -3.85994 | 37984 ft | 458 kts | 359° |
| 2026-05-08 10:00 | 47.78888 | -3.85716 | 38060 ft | 455 kts | 4° |
| 2026-05-08 10:00 | 47.82038 | -3.85505 | 38233 ft | 455 kts | 359° |
| 2026-05-08 10:00 | 47.85210 | -3.85361 | 37998 ft | 456 kts | 359° |
| 2026-05-08 10:01 | 47.91522 | -3.85176 | 37951 ft | 453 kts | 358° |
| 2026-05-08 10:01 | 47.97839 | -3.84986 | 37968 ft | 455 kts | 358° |
| 2026-05-08 10:02 | 48.04132 | -3.84744 | 37970 ft | 455 kts | 359° |
| 2026-05-08 10:02 | 48.10469 | -3.84476 | 37972 ft | 456 kts | 359° |
| 2026-05-08 10:03 | 48.16810 | -3.84213 | 37977 ft | 456 kts | 359° |
| 2026-05-08 10:03 | 48.23151 | -3.83949 | 37989 ft | 456 kts | 359° |
| 2026-05-08 10:04 | 48.29489 | -3.83690 | 37999 ft | 455 kts | 358° |
| 2026-05-08 10:04 | 48.35781 | -3.83435 | 37999 ft | 455 kts | 359° |
| 2026-05-08 10:05 | 48.42111 | -3.83172 | 38021 ft | 455 kts | 358° |
| 2026-05-08 10:05 | 48.48436 | -3.82911 | 38013 ft | 455 kts | 358° |
| 2026-05-08 10:06 | 48.54761 | -3.82650 | 38016 ft | 455 kts | 358° |
| 2026-05-08 10:06 | 48.61043 | -3.82389 | 38031 ft | 455 kts | 358° |
| 2026-05-08 10:07 | 48.67372 | -3.82131 | 38014 ft | 455 kts | 358° |
| 2026-05-08 10:07 | 48.73706 | -3.81865 | 38017 ft | 455 kts | 358° |
| 2026-05-08 10:08 | 48.80041 | -3.81606 | 38017 ft | 456 kts | 358° |
| 2026-05-08 10:08 | 48.86339 | -3.81347 | 38019 ft | 456 kts | 358° |
| 2026-05-08 10:09 | 48.92678 | -3.81075 | 38038 ft | 456 kts | 358° |
| 2026-05-08 10:09 | 48.99020 | -3.80800 | 38041 ft | 456 kts | 359° |
| 2026-05-08 10:10 | 49.05364 | -3.80443 | 38053 ft | 457 kts | 359° |
| 2026-05-08 10:10 | 49.11675 | -3.80035 | 38048 ft | 457 kts | 359° |
| 2026-05-08 10:11 | 49.18029 | -3.79632 | 38047 ft | 457 kts | 359° |
| 2026-05-08 10:11 | 49.24384 | -3.79242 | 38076 ft | 457 kts | 359° |
| 2026-05-08 10:12 | 49.30736 | -3.78861 | 38068 ft | 457 kts | 359° |
| 2026-05-08 10:12 | 49.37081 | -3.78470 | 38061 ft | 456 kts | 359° |
| 2026-05-08 10:13 | 49.43383 | -3.78081 | 38056 ft | 456 kts | 359° |
| 2026-05-08 10:13 | 49.49726 | -3.77679 | 37936 ft | 456 kts | 359° |
| 2026-05-08 10:14 | 49.52896 | -3.77480 | 37763 ft | 455 kts | 359° |
| 2026-05-08 10:14 | 49.56063 | -3.77285 | 37602 ft | 455 kts | 359° |
| 2026-05-08 10:14 | 49.59223 | -3.77093 | 37437 ft | 455 kts | 358° |
| 2026-05-08 10:14 | 49.62383 | -3.76900 | 37274 ft | 454 kts | 358° |
| 2026-05-08 10:15 | 49.65503 | -3.76708 | 37084 ft | 454 kts | 358° |
| 2026-05-08 10:15 | 49.68655 | -3.76513 | 37050 ft | 453 kts | 358° |
| 2026-05-08 10:15 | 49.74969 | -3.75959 | 37046 ft | 455 kts | 0° |
| 2026-05-08 10:16 | 49.81287 | -3.75145 | 37046 ft | 456 kts | 1° |